Time;durP1;ratioP1;P1;durP2;ratioP2;P2;SDS_P1;SDS_P2;PMS_P1;PMS_P2;Temp;Humidity;BMP_temperature;BMP_pressure;BME280_temperature;BME280_humidity;BME280_pressure;Samples;Min_cycle;Max_cycle;Signal;HPM_P1;HPM_P2
2023/01/20 00:01:22;;;;;;;;;;;20.90;59.70;;;;;;1557407;75;647;-71
2023/01/20 00:03:24;;;;;;;;;;;20.80;59.60;;;;;;1562559;75;772;-69
2023/01/20 00:05:26;;;;;;;;;;;20.80;59.70;;;;;;1556785;71;2131;-72
2023/01/20 00:07:28;;;;;;;;;;;20.90;59.60;;;;;;1554815;76;713;-69
2023/01/20 00:09:30;;;;;;;;;;;20.90;59.50;;;;;;1549112;75;1951;-70
2023/01/20 00:11:32;;;;;;;;;;;21.00;59.40;;;;;;1545690;75;720;-72
2023/01/20 00:13:34;;;;;;;;;;;21.10;59.20;;;;;;1544564;75;1551;-69
2023/01/20 00:15:36;;;;;;;;;;;21.00;59.10;;;;;;1537879;75;1215;-69
2023/01/20 00:17:38;;;;;;;;;;;21.20;59.10;;;;;;1538359;76;780;-70
2023/01/20 00:19:40;;;;;;;;;;;21.10;59.00;;;;;;1532673;76;720;-70
2023/01/20 00:21:42;;;;;;;;;;;21.10;59.00;;;;;;1545103;76;712;-71
2023/01/20 00:23:44;;;;;;;;;;;21.20;58.90;;;;;;1544016;76;732;-67
2023/01/20 00:25:46;;;;;;;;;;;21.10;58.90;;;;;;1540519;75;1183;-70
2023/01/20 00:27:48;;;;;;;;;;;21.20;58.90;;;;;;1528404;76;1587;-74
2023/01/20 00:29:50;;;;;;;;;;;21.20;59.00;;;;;;1536579;76;1917;-70
2023/01/20 00:31:52;;;;;;;;;;;21.10;59.00;;;;;;1538867;76;726;-70
2023/01/20 00:33:55;;;;;;;;;;;21.20;59.00;;;;;;1545978;76;749;-70
2023/01/20 00:35:56;;;;;;;;;;;21.20;59.10;;;;;;1539069;76;1063;-70
2023/01/20 00:37:58;;;;;;;;;;;21.10;59.10;;;;;;1532957;76;818;-69
2023/01/20 00:40:00;;;;;;;;;;;21.10;59.10;;;;;;1529778;76;728;-70
2023/01/20 00:42:02;;;;;;;;;;;21.20;59.10;;;;;;1526297;76;1610;-70
2023/01/20 00:44:04;;;;;;;;;;;21.20;59.10;;;;;;1528155;76;1129;-70
2023/01/20 00:46:06;;;;;;;;;;;21.20;59.00;;;;;;1534234;76;925;-69
2023/01/20 00:48:08;;;;;;;;;;;21.30;58.90;;;;;;1529883;76;665;-72
2023/01/20 00:50:10;;;;;;;;;;;21.20;58.70;;;;;;1537591;76;832;-69
2023/01/20 00:52:12;;;;;;;;;;;21.20;58.70;;;;;;1524349;76;724;-69
2023/01/20 00:54:14;;;;;;;;;;;21.30;59.10;;;;;;1531828;76;1135;-67
2023/01/20 00:56:16;;;;;;;;;;;21.20;59.10;;;;;;1523632;76;1747;-68
2023/01/20 00:58:18;;;;;;;;;;;21.10;59.10;;;;;;1522695;76;810;-68
2023/01/20 01:00:19;;;;;;;;;;;21.10;58.90;;;;;;1532445;76;726;-69
2023/01/20 01:02:21;;;;;;;;;;;21.10;58.60;;;;;;1526121;76;936;-69
2023/01/20 01:04:23;;;;;;;;;;;21.20;58.80;;;;;;1531257;75;1237;-74
2023/01/20 01:06:25;;;;;;;;;;;21.10;59.00;;;;;;1526198;76;887;-70
2023/01/20 01:08:27;;;;;;;;;;;21.10;59.20;;;;;;1533256;76;1948;-70
2023/01/20 01:10:29;;;;;;;;;;;21.00;59.20;;;;;;1528592;76;766;-70
2023/01/20 01:12:31;;;;;;;;;;;21.00;59.40;;;;;;1531549;76;791;-71
2023/01/20 01:14:33;;;;;;;;;;;21.00;59.40;;;;;;1532777;75;1159;-71
2023/01/20 01:16:34;;;;;;;;;;;21.00;59.60;;;;;;1521266;76;711;-71
2023/01/20 01:18:36;;;;;;;;;;;21.00;59.70;;;;;;1529593;76;723;-71
2023/01/20 01:20:38;;;;;;;;;;;20.90;59.70;;;;;;1517646;76;777;-70
2023/01/20 01:22:40;;;;;;;;;;;21.00;59.70;;;;;;1530343;76;1337;-70
2023/01/20 01:24:43;;;;;;;;;;;21.00;59.80;;;;;;1524741;76;1184;-70
2023/01/20 01:26:45;;;;;;;;;;;20.90;59.80;;;;;;1525513;76;1900;-70
2023/01/20 01:28:47;;;;;;;;;;;21.00;59.70;;;;;;1521358;76;1962;-70
2023/01/20 01:30:49;;;;;;;;;;;21.00;59.80;;;;;;1527070;76;678;-70
2023/01/20 01:32:51;;;;;;;;;;;21.00;59.80;;;;;;1525398;76;681;-72
2023/01/20 01:34:53;;;;;;;;;;;20.90;59.80;;;;;;1525931;76;1105;-70
2023/01/20 01:36:55;;;;;;;;;;;20.90;59.80;;;;;;1527992;76;1498;-70
2023/01/20 01:38:57;;;;;;;;;;;21.00;59.80;;;;;;1525136;76;755;-72
2023/01/20 01:40:59;;;;;;;;;;;21.00;59.80;;;;;;1526931;76;908;-70
2023/01/20 01:43:01;;;;;;;;;;;21.00;59.80;;;;;;1528360;76;786;-70
2023/01/20 01:45:04;;;;;;;;;;;21.00;59.70;;;;;;1524941;76;1152;-71
2023/01/20 01:47:06;;;;;;;;;;;21.10;59.80;;;;;;1520128;76;1643;-70
2023/01/20 01:49:10;;;;;;;;;;;21.00;59.70;;;;;;1526602;76;1956;-70
2023/01/20 01:51:13;;;;;;;;;;;21.00;59.70;;;;;;1519521;76;1526;-69
2023/01/20 01:53:15;;;;;;;;;;;21.00;59.70;;;;;;1518405;76;785;-71
2023/01/20 01:55:17;;;;;;;;;;;21.00;59.70;;;;;;1525406;76;1130;-72
2023/01/20 01:57:19;;;;;;;;;;;21.10;59.70;;;;;;1538954;76;747;-72
2023/01/20 01:59:21;;;;;;;;;;;21.00;59.60;;;;;;1540473;76;738;-71
2023/01/20 02:01:23;;;;;;;;;;;21.00;59.70;;;;;;1534205;76;674;-70
2023/01/20 02:03:26;;;;;;;;;;;21.00;59.70;;;;;;1524478;76;784;-69
2023/01/20 02:05:28;;;;;;;;;;;21.00;59.80;;;;;;1537663;75;1619;-71
2023/01/20 02:07:30;;;;;;;;;;;21.00;59.80;;;;;;1524361;76;689;-69
2023/01/20 02:09:31;;;;;;;;;;;21.00;59.70;;;;;;1522649;77;1989;-69
2023/01/20 02:11:38;;;;;;;;;;;21.00;59.70;;;;;;1538417;76;782;-69
2023/01/20 02:13:40;;;;;;;;;;;21.00;59.60;;;;;;1540570;76;1788;-69
2023/01/20 02:15:44;;;;;;;;;;;21.00;59.40;;;;;;1547466;75;1148;-70
2023/01/20 02:17:47;;;;;;;;;;;21.00;59.40;;;;;;1531926;76;747;-69
2023/01/20 02:20:07;;;;;;;;;;;21.10;59.50;;;;;;1530088;76;1949;-71
2023/01/20 02:22:27;;;;;;;;;;;21.00;59.30;;;;;;1530705;76;831;-72
2023/01/20 02:24:33;;;;;;;;;;;21.00;59.40;;;;;;1528618;75;1144;-69
2023/01/20 02:26:53;;;;;;;;;;;21.00;59.70;;;;;;1533865;76;714;-69
2023/01/20 02:29:13;;;;;;;;;;;21.00;59.80;;;;;;1523492;76;1936;-69
2023/01/20 02:31:23;;;;;;;;;;;20.90;59.90;;;;;;1541065;76;751;-69
2023/01/20 02:33:26;;;;;;;;;;;21.00;60.00;;;;;;1528067;76;1962;-69
2023/01/20 02:35:29;;;;;;;;;;;20.90;60.30;;;;;;1524562;76;1179;-69
2023/01/20 02:37:33;;;;;;;;;;;20.90;60.20;;;;;;1524700;76;727;-70
2023/01/20 02:39:39;;;;;;;;;;;21.00;60.10;;;;;;1521498;76;1678;-69
2023/01/20 02:41:41;;;;;;;;;;;21.00;60.00;;;;;;1540914;76;693;-70
2023/01/20 02:43:45;;;;;;;;;;;21.10;59.80;;;;;;1542344;76;805;-69
2023/01/20 02:45:51;;;;;;;;;;;21.20;59.50;;;;;;1543027;75;1115;-69
2023/01/20 02:48:04;;;;;;;;;;;21.30;59.40;;;;;;1512577;76;1650;-70
2023/01/20 02:50:07;;;;;;;;;;;21.30;59.30;;;;;;1510755;76;1936;-69
2023/01/20 02:52:11;;;;;;;;;;;21.30;59.20;;;;;;1534095;76;695;-69
2023/01/20 02:54:13;;;;;;;;;;;21.20;59.10;;;;;;1542537;75;1959;-69
2023/01/20 02:56:15;;;;;;;;;;;21.30;59.20;;;;;;1537039;76;776;-69
2023/01/20 02:58:18;;;;;;;;;;;21.40;59.10;;;;;;1530594;76;763;-68
2023/01/20 03:00:22;;;;;;;;;;;21.40;59.10;;;;;;1525298;76;1591;-68
2023/01/20 03:02:24;;;;;;;;;;;21.40;59.00;;;;;;1522406;76;1659;-68
2023/01/20 03:04:27;;;;;;;;;;;21.30;58.90;;;;;;1535288;75;1152;-68
2023/01/20 03:06:31;;;;;;;;;;;21.40;58.80;;;;;;1537032;76;817;-69
2023/01/20 03:08:33;;;;;;;;;;;21.50;58.90;;;;;;1541132;76;743;-69
2023/01/20 03:10:35;;;;;;;;;;;21.40;58.70;;;;;;1537362;76;1948;-70
2023/01/20 03:12:41;;;;;;;;;;;21.50;58.70;;;;;;1541471;76;772;-70
2023/01/20 03:14:43;;;;;;;;;;;21.40;58.60;;;;;;1532636;75;1179;-71
2023/01/20 03:16:47;;;;;;;;;;;21.40;58.70;;;;;;1527436;76;1511;-70
2023/01/20 03:18:49;;;;;;;;;;;21.30;58.90;;;;;;1527836;76;713;-71
2023/01/20 03:20:51;;;;;;;;;;;21.30;59.00;;;;;;1546365;76;739;-70
2023/01/20 03:22:53;;;;;;;;;;;21.30;58.90;;;;;;1533953;76;717;-72
2023/01/20 03:24:54;;;;;;;;;;;21.20;58.90;;;;;;1530621;75;1161;-74
2023/01/20 03:26:56;;;;;;;;;;;21.20;59.20;;;;;;1538087;76;753;-72
2023/01/20 03:28:58;;;;;;;;;;;21.10;59.20;;;;;;1548778;75;757;-70
2023/01/20 03:31:00;;;;;;;;;;;21.10;59.30;;;;;;1522426;76;1938;-64
2023/01/20 03:33:02;;;;;;;;;;;21.00;59.80;;;;;;1523257;76;730;-69
2023/01/20 03:35:04;;;;;;;;;;;21.00;59.80;;;;;;1536333;76;1165;-70
2023/01/20 03:37:06;;;;;;;;;;;21.00;60.10;;;;;;1547497;76;676;-70
2023/01/20 03:39:08;;;;;;;;;;;21.00;60.30;;;;;;1533814;76;813;-70
2023/01/20 03:41:11;;;;;;;;;;;21.00;60.30;;;;;;1536911;76;695;-70
2023/01/20 03:43:15;;;;;;;;;;;20.90;60.40;;;;;;1538050;76;1876;-70
2023/01/20 03:45:31;;;;;;;;;;;21.00;60.50;;;;;;1526160;76;1158;-69
2023/01/20 03:47:34;;;;;;;;;;;20.90;60.80;;;;;;1521394;76;673;-72
2023/01/20 03:49:37;;;;;;;;;;;21.00;60.80;;;;;;1533513;76;1931;-69
2023/01/20 03:51:46;;;;;;;;;;;20.90;60.80;;;;;;1520222;76;785;-70
2023/01/20 03:54:05;;;;;;;;;;;20.90;60.70;;;;;;1527104;76;969;-69
2023/01/20 03:56:12;;;;;;;;;;;20.90;60.70;;;;;;1520053;76;719;-75
2023/01/20 03:58:15;;;;;;;;;;;21.00;60.60;;;;;;1533105;76;722;-71
2023/01/20 04:00:17;;;;;;;;;;;21.00;60.60;;;;;;1534458;76;783;-70
2023/01/20 04:02:19;;;;;;;;;;;21.00;60.60;;;;;;1534689;76;715;-71
2023/01/20 04:04:21;;;;;;;;;;;21.00;60.60;;;;;;1530077;75;1153;-71
2023/01/20 04:06:23;;;;;;;;;;;20.90;60.60;;;;;;1524764;76;790;-71
2023/01/20 04:08:26;;;;;;;;;;;21.00;60.60;;;;;;1543019;76;658;-76
2023/01/20 04:10:28;;;;;;;;;;;21.00;60.60;;;;;;1532721;76;1933;-70
2023/01/20 04:12:29;;;;;;;;;;;21.00;60.50;;;;;;1539960;76;722;-70
2023/01/20 04:14:31;;;;;;;;;;;21.00;60.50;;;;;;1530310;76;1184;-70
2023/01/20 04:16:33;;;;;;;;;;;21.00;60.50;;;;;;1534696;76;764;-70
2023/01/20 04:18:35;;;;;;;;;;;21.00;60.50;;;;;;1528574;76;684;-70
2023/01/20 04:20:37;;;;;;;;;;;21.00;60.40;;;;;;1514169;77;1186;-71
2023/01/20 04:22:41;;;;;;;;;;;21.10;60.50;;;;;;1530343;76;728;-71
2023/01/20 04:24:44;;;;;;;;;;;21.00;60.40;;;;;;1537082;75;1776;-70
2023/01/20 04:26:46;;;;;;;;;;;21.10;60.50;;;;;;1530620;76;717;-71
2023/01/20 04:28:48;;;;;;;;;;;21.10;60.50;;;;;;1539556;76;682;-70
2023/01/20 04:30:50;;;;;;;;;;;21.10;60.40;;;;;;1536280;76;1933;-72
2023/01/20 04:32:52;;;;;;;;;;;21.00;60.30;;;;;;1537579;76;764;-76
2023/01/20 04:34:54;;;;;;;;;;;21.10;60.60;;;;;;1545865;75;1203;-74
2023/01/20 04:36:55;;;;;;;;;;;21.10;60.50;;;;;;1530204;76;724;-75
2023/01/20 04:38:57;;;;;;;;;;;21.10;60.60;;;;;;1526329;76;680;-70
2023/01/20 04:40:59;;;;;;;;;;;21.10;60.40;;;;;;1541351;76;670;-70
2023/01/20 04:43:01;;;;;;;;;;;21.20;60.40;;;;;;1518513;76;662;-70
2023/01/20 04:45:03;;;;;;;;;;;21.20;60.30;;;;;;1542961;75;1155;-72
2023/01/20 04:47:05;;;;;;;;;;;21.20;60.30;;;;;;1530030;76;755;-70
2023/01/20 04:49:09;;;;;;;;;;;21.20;60.30;;;;;;1537866;76;732;-69
2023/01/20 04:51:10;;;;;;;;;;;21.20;60.30;;;;;;1528102;76;1924;-70
2023/01/20 04:53:15;;;;;;;;;;;21.10;60.30;;;;;;1529717;76;727;-69
2023/01/20 04:55:16;;;;;;;;;;;21.20;60.30;;;;;;1526990;76;1668;-70
2023/01/20 04:57:18;;;;;;;;;;;21.10;60.20;;;;;;1530890;76;744;-70
2023/01/20 04:59:20;;;;;;;;;;;21.20;60.20;;;;;;1539928;76;732;-72
2023/01/20 05:01:22;;;;;;;;;;;21.20;60.20;;;;;;1534232;76;712;-70
2023/01/20 05:03:24;;;;;;;;;;;21.20;60.20;;;;;;1540215;76;748;-69
2023/01/20 05:05:25;;;;;;;;;;;21.20;60.20;;;;;;1540622;75;1149;-70
2023/01/20 05:07:27;;;;;;;;;;;21.20;60.20;;;;;;1543986;76;760;-70
2023/01/20 05:09:29;;;;;;;;;;;21.30;60.20;;;;;;1540939;76;775;-70
2023/01/20 05:11:31;;;;;;;;;;;21.20;60.20;;;;;;1537928;76;1943;-70
2023/01/20 05:13:37;;;;;;;;;;;21.20;60.10;;;;;;1538634;76;764;-70
2023/01/20 05:15:36;;;;;;;;;;;21.20;60.10;;;;;;1536001;76;1734;-69
2023/01/20 05:17:38;;;;;;;;;;;21.30;60.20;;;;;;1533380;76;734;-69
2023/01/20 05:19:42;;;;;;;;;;;21.20;60.00;;;;;;1525129;76;788;-69
2023/01/20 05:21:44;;;;;;;;;;;21.30;60.20;;;;;;1527406;76;815;-69
2023/01/20 05:23:46;;;;;;;;;;;21.20;60.10;;;;;;1524431;76;733;-69
2023/01/20 05:25:51;;;;;;;;;;;21.20;60.10;;;;;;1535863;76;1162;-67
2023/01/20 05:27:53;;;;;;;;;;;21.30;60.20;;;;;;1531115;76;752;-69
2023/01/20 05:29:54;;;;;;;;;;;21.30;60.10;;;;;;1530184;76;1925;-70
2023/01/20 05:31:56;;;;;;;;;;;21.20;60.00;;;;;;1530310;76;766;-69
2023/01/20 05:33:58;;;;;;;;;;;21.30;60.10;;;;;;1522099;76;733;-69
2023/01/20 05:36:02;;;;;;;;;;;21.30;60.10;;;;;;1527868;76;1209;-68
2023/01/20 05:38:04;;;;;;;;;;;21.40;60.00;;;;;;1529057;76;1919;-69
2023/01/20 05:40:06;;;;;;;;;;;21.40;60.00;;;;;;1534134;76;667;-70
2023/01/20 05:42:08;;;;;;;;;;;21.30;60.00;;;;;;1538990;76;679;-69
2023/01/20 05:44:10;;;;;;;;;;;21.30;60.00;;;;;;1531133;75;1144;-70
2023/01/20 05:46:12;;;;;;;;;;;21.30;60.00;;;;;;1528070;76;794;-70
2023/01/20 05:48:14;;;;;;;;;;;21.40;59.90;;;;;;1517918;76;738;-70
2023/01/20 05:50:15;;;;;;;;;;;21.30;60.00;;;;;;1527864;76;1942;-70
2023/01/20 05:52:17;;;;;;;;;;;21.40;59.90;;;;;;1530020;76;758;-71
2023/01/20 05:54:19;;;;;;;;;;;21.40;60.00;;;;;;1541335;75;1187;-72
2023/01/20 05:56:21;;;;;;;;;;;21.40;60.10;;;;;;1541399;76;749;-70
2023/01/20 05:58:23;;;;;;;;;;;21.40;60.00;;;;;;1542679;76;693;-71
2023/01/20 06:00:25;;;;;;;;;;;21.30;60.00;;;;;;1533738;76;727;-72
2023/01/20 06:02:28;;;;;;;;;;;21.40;60.10;;;;;;1522732;76;747;-70
2023/01/20 06:04:49;;;;;;;;;;;21.40;60.00;;;;;;1527295;75;1146;-70
2023/01/20 06:06:51;;;;;;;;;;;21.50;60.50;;;;;;1557850;75;532;-67
2023/01/20 06:08:53;;;;;;;;;;;21.40;60.40;;;;;;1546550;76;681;-67
2023/01/20 06:10:55;;;;;;;;;;;21.40;60.40;;;;;;1553140;76;1943;-66
2023/01/20 06:12:57;;;;;;;;;;;21.40;60.30;;;;;;1550989;76;738;-68
2023/01/20 06:14:59;;;;;;;;;;;21.50;60.40;;;;;;1548230;76;1198;-67
2023/01/20 06:17:01;;;;;;;;;;;21.50;60.40;;;;;;1533197;77;712;-69
2023/01/20 06:19:03;;;;;;;;;;;21.50;60.40;;;;;;1533369;77;670;-70
2023/01/20 06:21:05;;;;;;;;;;;21.50;60.20;;;;;;1534550;77;643;-69
2023/01/20 06:23:06;;;;;;;;;;;21.50;59.90;;;;;;1520950;77;754;-68
2023/01/20 06:25:08;;;;;;;;;;;21.60;59.60;;;;;;1525298;77;1150;-68
2023/01/20 06:27:10;;;;;;;;;;;21.70;59.10;;;;;;1532622;77;697;-70
2023/01/20 06:29:12;;;;;;;;;;;21.70;58.90;;;;;;1534587;77;721;-70
2023/01/20 06:31:15;;;;;;;;;;;21.70;59.10;;;;;;1538143;77;1962;-70
2023/01/20 06:33:16;;;;;;;;;;;21.70;58.80;;;;;;1538909;77;748;-71
2023/01/20 06:35:18;;;;;;;;;;;21.70;58.50;;;;;;1539867;77;1188;-72
2023/01/20 06:37:20;;;;;;;;;;;21.70;56.60;;;;;;1532568;77;750;-73
2023/01/20 06:39:22;;;;;;;;;;;21.80;57.40;;;;;;1537577;76;720;-73
2023/01/20 06:41:24;;;;;;;;;;;22.00;56.00;;;;;;1522119;77;718;-71
2023/01/20 06:43:28;;;;;;;;;;;22.10;54.50;;;;;;1533759;77;718;-74
2023/01/20 06:45:30;;;;;;;;;;;22.00;53.40;;;;;;1529409;77;1147;-71
2023/01/20 06:47:32;;;;;;;;;;;22.10;52.70;;;;;;1531628;77;1615;-70
2023/01/20 06:49:34;;;;;;;;;;;22.10;51.80;;;;;;1523187;77;729;-71
2023/01/20 06:51:36;;;;;;;;;;;22.10;51.30;;;;;;1534355;77;1943;-71
2023/01/20 06:53:38;;;;;;;;;;;22.00;50.40;;;;;;1536314;77;666;-68
2023/01/20 06:55:39;;;;;;;;;;;22.00;49.00;;;;;;1536894;77;1129;-70
2023/01/20 06:57:41;;;;;;;;;;;21.80;47.70;;;;;;1538806;77;709;-71
2023/01/20 06:59:43;;;;;;;;;;;21.80;48.00;;;;;;1524847;77;720;-71
2023/01/20 07:01:45;;;;;;;;;;;21.70;48.10;;;;;;1526972;77;831;-70
2023/01/20 07:03:47;;;;;;;;;;;21.80;47.90;;;;;;1531708;77;706;-71
2023/01/20 07:06:00;;;;;;;;;;;21.70;47.60;;;;;;1538693;77;1154;-71
2023/01/20 07:08:02;;;;;;;;;;;21.60;46.90;;;;;;1531104;77;673;-68
2023/01/20 07:10:04;;;;;;;;;;;21.70;47.20;;;;;;1529977;77;713;-68
2023/01/20 07:12:06;;;;;;;;;;;21.50;46.30;;;;;;1537434;77;1917;-67
2023/01/20 07:14:08;;;;;;;;;;;21.50;46.10;;;;;;1529578;76;719;-67
2023/01/20 07:16:10;;;;;;;;;;;21.40;45.30;;;;;;1530012;76;1130;-68
2023/01/20 07:18:12;;;;;;;;;;;21.30;45.10;;;;;;1532296;77;697;-68
2023/01/20 07:20:14;;;;;;;;;;;21.20;44.70;;;;;;1533269;77;687;-68
2023/01/20 07:22:16;;;;;;;;;;;21.20;44.50;;;;;;1532199;77;700;-66
2023/01/20 07:24:18;;;;;;;;;;;21.10;44.30;;;;;;1527509;77;666;-68
2023/01/20 07:26:21;;;;;;;;;;;21.00;43.90;;;;;;1529033;77;1117;-71
2023/01/20 07:28:22;;;;;;;;;;;21.00;43.70;;;;;;1530632;77;730;-69
2023/01/20 07:30:24;;;;;;;;;;;20.90;43.40;;;;;;1529396;77;696;-68
2023/01/20 07:32:28;;;;;;;;;;;20.90;43.20;;;;;;1529350;77;1926;-67
2023/01/20 07:34:30;;;;;;;;;;;20.80;42.80;;;;;;1538984;76;784;-67
2023/01/20 07:36:32;;;;;;;;;;;20.80;42.20;;;;;;1538351;76;1171;-67
2023/01/20 07:38:34;;;;;;;;;;;20.70;42.20;;;;;;1537295;77;737;-68
2023/01/20 07:40:35;;;;;;;;;;;20.70;41.90;;;;;;1533266;77;736;-68
2023/01/20 07:42:37;;;;;;;;;;;20.70;41.80;;;;;;1534699;77;1497;-68
2023/01/20 07:44:39;;;;;;;;;;;20.60;41.30;;;;;;1532301;76;1225;-68
2023/01/20 07:46:41;;;;;;;;;;;20.60;41.30;;;;;;1539348;77;791;-68
2023/01/20 07:48:43;;;;;;;;;;;20.50;40.80;;;;;;1534162;77;731;-68
2023/01/20 07:50:45;;;;;;;;;;;20.60;40.80;;;;;;1526551;77;1941;-66
2023/01/20 07:52:47;;;;;;;;;;;20.40;40.60;;;;;;1538719;77;634;-65
2023/01/20 07:54:49;;;;;;;;;;;20.40;40.40;;;;;;1532048;77;1092;-68
2023/01/20 07:56:50;;;;;;;;;;;20.40;40.00;;;;;;1533135;77;746;-70
2023/01/20 07:58:52;;;;;;;;;;;20.30;40.00;;;;;;1525300;77;781;-71
2023/01/20 08:00:54;;;;;;;;;;;20.20;39.70;;;;;;1530722;77;704;-66
2023/01/20 08:02:56;;;;;;;;;;;20.20;39.60;;;;;;1540113;77;691;-66
2023/01/20 08:04:58;;;;;;;;;;;20.10;39.60;;;;;;1531764;77;1143;-67
2023/01/20 08:07:00;;;;;;;;;;;20.10;39.50;;;;;;1536888;77;783;-67
2023/01/20 08:09:02;;;;;;;;;;;20.10;39.40;;;;;;1533676;77;705;-68
2023/01/20 08:11:04;;;;;;;;;;;20.00;39.20;;;;;;1534179;77;1956;-68
2023/01/20 08:13:05;;;;;;;;;;;19.90;39.10;;;;;;1532465;77;980;-67
2023/01/20 08:15:08;;;;;;;;;;;19.90;38.80;;;;;;1530512;77;1149;-67
2023/01/20 08:17:10;;;;;;;;;;;19.90;38.70;;;;;;1527640;77;724;-66
2023/01/20 08:19:12;;;;;;;;;;;19.90;38.70;;;;;;1523572;77;713;-66
2023/01/20 08:21:17;;;;;;;;;;;19.80;38.30;;;;;;1535138;77;684;-66
2023/01/20 08:23:19;;;;;;;;;;;19.80;38.40;;;;;;1530545;77;735;-66
2023/01/20 08:25:21;;;;;;;;;;;19.80;38.30;;;;;;1531172;76;1157;-68
2023/01/20 08:27:23;;;;;;;;;;;19.70;38.20;;;;;;1532928;77;733;-68
2023/01/20 08:29:25;;;;;;;;;;;19.70;38.10;;;;;;1534008;77;732;-69
2023/01/20 08:31:27;;;;;;;;;;;19.70;38.10;;;;;;1539412;77;1927;-66
2023/01/20 08:33:29;;;;;;;;;;;19.60;37.90;;;;;;1534388;77;720;-67
2023/01/20 08:35:31;;;;;;;;;;;19.60;37.60;;;;;;1534759;76;1163;-66
2023/01/20 08:37:34;;;;;;;;;;;19.50;37.60;;;;;;1532083;77;727;-67
2023/01/20 08:39:36;;;;;;;;;;;19.50;37.50;;;;;;1535800;77;1368;-68
2023/01/20 08:41:38;;;;;;;;;;;19.50;37.50;;;;;;1523650;77;713;-68
2023/01/20 08:43:40;;;;;;;;;;;19.50;37.60;;;;;;1534698;77;791;-70
2023/01/20 08:45:43;;;;;;;;;;;19.50;37.30;;;;;;1536831;76;1117;-68
2023/01/20 08:47:45;;;;;;;;;;;19.50;37.40;;;;;;1528620;77;710;-68
2023/01/20 08:49:47;;;;;;;;;;;19.50;37.30;;;;;;1540430;77;796;-67
2023/01/20 08:51:49;;;;;;;;;;;19.40;37.30;;;;;;1525652;77;1941;-72
2023/01/20 08:53:51;;;;;;;;;;;19.40;37.30;;;;;;1518914;77;762;-66
2023/01/20 08:55:54;;;;;;;;;;;19.30;37.30;;;;;;1516880;77;1137;-68
2023/01/20 08:57:56;;;;;;;;;;;19.30;37.20;;;;;;1536441;77;1019;-68
2023/01/20 08:59:58;;;;;;;;;;;19.30;37.10;;;;;;1537585;77;717;-67
2023/01/20 09:02:00;;;;;;;;;;;19.20;37.00;;;;;;1532765;77;718;-67
2023/01/20 09:04:02;;;;;;;;;;;19.20;36.90;;;;;;1537583;77;815;-69
2023/01/20 09:06:04;;;;;;;;;;;19.20;36.70;;;;;;1539302;77;1124;-67
2023/01/20 09:08:06;;;;;;;;;;;19.20;36.60;;;;;;1532969;77;810;-65
2023/01/20 09:10:08;;;;;;;;;;;19.20;36.60;;;;;;1537759;77;751;-68
2023/01/20 09:12:10;;;;;;;;;;;19.10;36.50;;;;;;1532180;77;1941;-66
2023/01/20 09:14:12;;;;;;;;;;;19.20;36.50;;;;;;1529062;77;795;-70
2023/01/20 09:16:14;;;;;;;;;;;19.10;36.50;;;;;;1533683;77;1127;-67
2023/01/20 09:18:16;;;;;;;;;;;19.10;36.50;;;;;;1528869;77;715;-67
2023/01/20 09:20:18;;;;;;;;;;;19.10;36.40;;;;;;1528215;77;682;-67
2023/01/20 09:22:20;;;;;;;;;;;19.10;36.30;;;;;;1529612;76;721;-68
2023/01/20 09:24:22;;;;;;;;;;;19.00;36.00;;;;;;1532638;77;565;-68
2023/01/20 09:26:24;;;;;;;;;;;19.00;36.00;;;;;;1527691;77;1110;-69
2023/01/20 09:28:26;;;;;;;;;;;19.00;36.10;;;;;;1533756;77;734;-69
2023/01/20 09:30:28;;;;;;;;;;;19.00;36.00;;;;;;1529963;77;737;-67
2023/01/20 09:32:31;;;;;;;;;;;19.00;35.90;;;;;;1532666;77;1941;-67
2023/01/20 09:34:33;;;;;;;;;;;19.00;35.90;;;;;;1530185;77;1142;-66
2023/01/20 09:36:35;;;;;;;;;;;18.90;35.80;;;;;;1529777;77;1663;-68
2023/01/20 09:45:50;;;;;;;;;;;18.80;35.60;;;;;;1529995;77;1673;-67
2023/01/20 09:47:53;;;;;;;;;;;18.80;35.70;;;;;;1530872;77;1876;-68
2023/01/20 09:54:43;;;;;;;;;;;18.80;35.50;;;;;;1531351;77;1695;-69
2023/01/20 09:56:46;;;;;;;;;;;18.80;35.30;;;;;;1534760;76;695;-68
2023/01/20 09:58:50;;;;;;;;;;;18.70;35.20;;;;;;1536331;77;643;-67
2023/01/20 10:00:53;;;;;;;;;;;18.70;35.30;;;;;;1536958;77;1824;-65
2023/01/20 10:02:57;;;;;;;;;;;18.80;35.10;;;;;;1531556;77;752;-69
2023/01/20 10:04:59;;;;;;;;;;;18.70;35.10;;;;;;1533207;77;1207;-68
2023/01/20 10:07:08;;;;;;;;;;;18.70;35.20;;;;;;1533652;77;817;-68
2023/01/20 10:09:12;;;;;;;;;;;18.70;35.10;;;;;;1530416;77;615;-67
2023/01/20 10:11:15;;;;;;;;;;;18.60;35.10;;;;;;1533552;77;1470;-69
2023/01/20 10:13:24;;;;;;;;;;;18.70;35.10;;;;;;1535797;77;1951;-68
2023/01/20 10:15:27;;;;;;;;;;;18.60;35.00;;;;;;1530274;76;1161;-68
2023/01/20 10:17:33;;;;;;;;;;;18.70;35.10;;;;;;1529351;77;805;-68
2023/01/20 10:19:41;;;;;;;;;;;18.60;35.00;;;;;;1527518;77;1424;-67
2023/01/20 10:21:50;;;;;;;;;;;18.60;34.90;;;;;;1532402;77;679;-68
2023/01/20 10:23:57;;;;;;;;;;;18.50;34.90;;;;;;1530693;77;784;-71
2023/01/20 10:26:07;;;;;;;;;;;18.50;34.90;;;;;;1525590;77;1144;-69
2023/01/20 10:28:10;;;;;;;;;;;18.50;34.80;;;;;;1533548;76;904;-69
2023/01/20 10:30:13;;;;;;;;;;;18.60;34.90;;;;;;1523307;77;1668;-67
2023/01/20 10:32:32;;;;;;;;;;;18.50;35.00;;;;;;1528767;77;1935;-67
2023/01/20 10:34:38;;;;;;;;;;;18.50;34.90;;;;;;1522279;76;1832;-66
2023/01/20 10:36:41;;;;;;;;;;;18.50;34.90;;;;;;1532056;77;1866;-68
2023/01/20 10:38:44;;;;;;;;;;;18.50;34.80;;;;;;1532215;77;800;-67
2023/01/20 10:40:48;;;;;;;;;;;18.50;34.90;;;;;;1537433;77;1182;-67
2023/01/20 10:42:52;;;;;;;;;;;18.50;34.70;;;;;;1487531;77;1102;-69
2023/01/20 10:44:54;;;;;;;;;;;18.40;34.70;;;;;;1522973;77;1215;-67
2023/01/20 10:47:16;;;;;;;;;;;18.40;34.50;;;;;;1540255;76;790;-67
2023/01/20 10:49:26;;;;;;;;;;;18.40;34.50;;;;;;1523493;76;1724;-67
2023/01/20 10:51:29;;;;;;;;;;;18.40;34.60;;;;;;1528802;77;750;-68
2023/01/20 10:53:33;;;;;;;;;;;18.40;34.50;;;;;;1521524;77;1947;-68
2023/01/20 10:55:43;;;;;;;;;;;18.40;34.40;;;;;;1530283;76;1137;-69
2023/01/20 10:57:46;;;;;;;;;;;18.40;34.50;;;;;;1531362;77;1994;-67
2023/01/20 10:59:52;;;;;;;;;;;18.40;34.40;;;;;;1520209;77;1927;-66
2023/01/20 11:01:54;;;;;;;;;;;18.40;34.40;;;;;;1522370;77;701;-68
2023/01/20 11:03:56;;;;;;;;;;;18.30;34.50;;;;;;1535356;77;585;-69
2023/01/20 11:05:58;;;;;;;;;;;18.30;34.50;;;;;;1530092;77;1218;-69
2023/01/20 11:08:00;;;;;;;;;;;18.30;34.50;;;;;;1539788;77;805;-69
2023/01/20 11:10:16;;;;;;;;;;;18.30;34.40;;;;;;1536052;77;696;-68
2023/01/20 11:12:20;;;;;;;;;;;18.30;34.40;;;;;;1526644;77;1927;-68
2023/01/20 11:14:21;;;;;;;;;;;18.30;34.30;;;;;;1534175;77;727;-69
2023/01/20 11:16:25;;;;;;;;;;;18.20;34.30;;;;;;1544885;76;1116;-68
2023/01/20 11:18:28;;;;;;;;;;;18.30;34.40;;;;;;1544987;76;1074;-68
2023/01/20 11:20:30;;;;;;;;;;;18.20;34.40;;;;;;1527401;76;674;-68
2023/01/20 11:22:32;;;;;;;;;;;18.20;34.20;;;;;;1531586;77;800;-68
2023/01/20 11:24:39;;;;;;;;;;;18.20;34.20;;;;;;1528718;77;1108;-68
2023/01/20 11:26:40;;;;;;;;;;;18.20;34.30;;;;;;1526749;77;1445;-68
2023/01/20 11:28:47;;;;;;;;;;;18.20;34.40;;;;;;1517685;77;1472;-67
2023/01/20 11:30:52;;;;;;;;;;;18.20;34.50;;;;;;1527459;77;717;-66
2023/01/20 11:33:07;;;;;;;;;;;18.20;34.50;;;;;;1531065;77;1918;-68
2023/01/20 11:35:19;;;;;;;;;;;18.10;34.50;;;;;;1529082;77;1100;-68
2023/01/20 11:37:24;;;;;;;;;;;18.10;34.50;;;;;;1519828;77;1007;-68
2023/01/20 11:39:30;;;;;;;;;;;18.10;34.40;;;;;;1523870;77;846;-69
2023/01/20 11:41:32;;;;;;;;;;;18.10;34.40;;;;;;1526951;77;745;-69
2023/01/20 11:43:34;;;;;;;;;;;18.10;34.40;;;;;;1532828;77;776;-67
2023/01/20 11:45:37;;;;;;;;;;;18.00;34.30;;;;;;1518960;77;1255;-68
2023/01/20 11:47:39;;;;;;;;;;;18.10;34.40;;;;;;1527269;77;751;-69
2023/01/20 11:49:40;;;;;;;;;;;18.10;34.30;;;;;;1524691;77;838;-69
2023/01/20 11:51:53;;;;;;;;;;;18.10;34.30;;;;;;1523484;77;797;-67
2023/01/20 11:53:56;;;;;;;;;;;18.10;34.40;;;;;;1530537;77;1911;-68
2023/01/20 11:56:05;;;;;;;;;;;18.10;34.30;;;;;;1508658;77;1265;-67
2023/01/20 11:58:09;;;;;;;;;;;18.00;34.10;;;;;;1528450;77;768;-69
2023/01/20 12:00:21;;;;;;;;;;;18.10;34.20;;;;;;1526816;77;962;-68
2023/01/20 12:02:24;;;;;;;;;;;18.00;34.10;;;;;;1530166;77;574;-67
2023/01/20 12:04:36;;;;;;;;;;;18.00;34.00;;;;;;1535396;77;719;-69
2023/01/20 12:06:40;;;;;;;;;;;18.00;34.00;;;;;;1532856;77;739;-68
2023/01/20 12:08:47;;;;;;;;;;;18.00;34.00;;;;;;1526637;77;2084;-68
2023/01/20 12:10:49;;;;;;;;;;;18.00;34.10;;;;;;1538352;70;2239;-75
2023/01/20 12:12:51;;;;;;;;;;;17.90;34.10;;;;;;1507120;77;1938;-74
2023/01/20 12:14:55;;;;;;;;;;;17.90;34.00;;;;;;1512053;76;739;-74
2023/01/20 12:16:58;;;;;;;;;;;18.00;34.00;;;;;;1512102;77;1694;-74
2023/01/20 12:19:02;;;;;;;;;;;17.90;33.90;;;;;;1513940;76;777;-74
2023/01/20 12:21:16;;;;;;;;;;;17.90;33.90;;;;;;1515445;76;1296;-74
2023/01/20 12:23:20;;;;;;;;;;;17.90;33.90;;;;;;1530354;76;1705;-74
2023/01/20 12:25:23;;;;;;;;;;;17.90;33.90;;;;;;1515090;76;1862;-74
2023/01/20 12:27:25;;;;;;;;;;;17.90;33.90;;;;;;1537395;76;718;-74